sensor_id;sensor_type;location;lat;lon;timestamp;pressure;altitude;pressure_sealevel;temperature;humidity
62418;BME280;48456;54.242;10.280;2023-07-31T00:00:03;100594.38;;;13.15;100.00
62418;BME280;48456;54.242;10.280;2023-07-31T00:02:30;100596.09;;;13.16;100.00
62418;BME280;48456;54.242;10.280;2023-07-31T00:04:56;100595.25;;;13.14;100.00
62418;BME280;48456;54.242;10.280;2023-07-31T00:07:23;100589.06;;;13.15;100.00
62418;BME280;48456;54.242;10.280;2023-07-31T00:09:49;100590.88;;;13.11;100.00
62418;BME280;48456;54.242;10.280;2023-07-31T00:12:15;100585.50;;;13.15;100.00
62418;BME280;48456;54.242;10.280;2023-07-31T00:14:42;100577.59;;;13.10;100.00
62418;BME280;48456;54.242;10.280;2023-07-31T00:17:08;100583.78;;;13.12;100.00
62418;BME280;48456;54.242;10.280;2023-07-31T00:19:35;100578.47;;;13.12;100.00
62418;BME280;48456;54.242;10.280;2023-07-31T00:22:01;100567.88;;;13.10;100.00
62418;BME280;48456;54.242;10.280;2023-07-31T00:24:27;100567.09;;;13.05;100.00
62418;BME280;48456;54.242;10.280;2023-07-31T00:26:54;100568.00;;;13.04;100.00
62418;BME280;48456;54.242;10.280;2023-07-31T00:29:20;100568.03;;;13.03;100.00
62418;BME280;48456;54.242;10.280;2023-07-31T00:31:46;100573.38;;;12.99;100.00
62418;BME280;48456;54.242;10.280;2023-07-31T00:34:13;100576.03;;;13.01;100.00
62418;BME280;48456;54.242;10.280;2023-07-31T00:36:39;100566.28;;;13.02;100.00
62418;BME280;48456;54.242;10.280;2023-07-31T00:39:06;100565.41;;;13.01;100.00
62418;BME280;48456;54.242;10.280;2023-07-31T00:41:33;100564.59;;;12.97;100.00
62418;BME280;48456;54.242;10.280;2023-07-31T00:43:59;100566.38;;;12.95;100.00
62418;BME280;48456;54.242;10.280;2023-07-31T00:46:26;100563.78;;;12.91;100.00
62418;BME280;48456;54.242;10.280;2023-07-31T00:48:52;100546.09;;;12.91;100.00
62418;BME280;48456;54.242;10.280;2023-07-31T00:51:18;100544.38;;;12.89;100.00
62418;BME280;48456;54.242;10.280;2023-07-31T00:53:45;100542.63;;;12.88;100.00
62418;BME280;48456;54.242;10.280;2023-07-31T00:56:11;100545.34;;;12.84;100.00
62418;BME280;48456;54.242;10.280;2023-07-31T00:58:38;100540.94;;;12.83;100.00
62418;BME280;48456;54.242;10.280;2023-07-31T01:01:05;100541.84;;;12.82;100.00
62418;BME280;48456;54.242;10.280;2023-07-31T01:03:31;100540.97;;;12.82;100.00
62418;BME280;48456;54.242;10.280;2023-07-31T01:08:41;100528.59;;;12.81;100.00
62418;BME280;48456;54.242;10.280;2023-07-31T01:11:16;100520.69;;;12.78;100.00
62418;BME280;48456;54.242;10.280;2023-07-31T01:13:44;100529.56;;;12.77;100.00
62418;BME280;48456;54.242;10.280;2023-07-31T01:16:11;100526.03;;;12.76;100.00
62418;BME280;48456;54.242;10.280;2023-07-31T01:18:37;100522.56;;;12.72;100.00
62418;BME280;48456;54.242;10.280;2023-07-31T01:21:06;100523.41;;;12.73;100.00
62418;BME280;48456;54.242;10.280;2023-07-31T01:23:48;100524.28;;;12.73;100.00
62418;BME280;48456;54.242;10.280;2023-07-31T01:26:21;100534.06;;;12.71;100.00
62418;BME280;48456;54.242;10.280;2023-07-31T01:31:18;100527.13;;;12.64;100.00
62418;BME280;48456;54.242;10.280;2023-07-31T01:33:46;100528.03;;;12.63;100.00
62418;BME280;48456;54.242;10.280;2023-07-31T01:36:13;100527.13;;;12.64;100.00
62418;BME280;48456;54.242;10.280;2023-07-31T01:38:40;100521.91;;;12.58;100.00
62418;BME280;48456;54.242;10.280;2023-07-31T01:41:06;100534.41;;;12.50;100.00
62418;BME280;48456;54.242;10.280;2023-07-31T01:43:32;100520.38;;;12.43;100.00
62418;BME280;48456;54.242;10.280;2023-07-31T01:45:59;100517.00;;;12.33;100.00
62418;BME280;48456;54.242;10.280;2023-07-31T01:48:25;100529.38;;;12.34;100.00
62418;BME280;48456;54.242;10.280;2023-07-31T01:50:51;100504.66;;;12.30;100.00
62418;BME280;48456;54.242;10.280;2023-07-31T01:53:18;100490.59;;;12.27;100.00
62418;BME280;48456;54.242;10.280;2023-07-31T01:55:44;100493.28;;;12.24;100.00
62418;BME280;48456;54.242;10.280;2023-07-31T01:58:11;100488.94;;;12.19;100.00
62418;BME280;48456;54.242;10.280;2023-07-31T02:00:38;100485.44;;;12.17;100.00
62418;BME280;48456;54.242;10.280;2023-07-31T02:03:04;100490.72;;;12.19;100.00
62418;BME280;48456;54.242;10.280;2023-07-31T02:05:31;100482.69;;;12.22;100.00
62418;BME280;48456;54.242;10.280;2023-07-31T02:07:57;100474.72;;;12.24;100.00
62418;BME280;48456;54.242;10.280;2023-07-31T02:10:23;100475.56;;;12.27;100.00
62418;BME280;48456;54.242;10.280;2023-07-31T02:12:50;100467.66;;;12.24;100.00
62418;BME280;48456;54.242;10.280;2023-07-31T02:15:16;100462.41;;;12.19;100.00
62418;BME280;48456;54.242;10.280;2023-07-31T02:17:43;100459.00;;;12.13;100.00
62418;BME280;48456;54.242;10.280;2023-07-31T02:20:09;100456.44;;;12.08;100.00
62418;BME280;48456;54.242;10.280;2023-07-31T02:22:36;100451.16;;;12.03;100.00
62418;BME280;48456;54.242;10.280;2023-07-31T02:25:02;100448.63;;;11.97;100.00
62418;BME280;48456;54.242;10.280;2023-07-31T02:27:28;100442.47;;;11.93;100.00
62418;BME280;48456;54.242;10.280;2023-07-31T02:29:55;100439.84;;;11.92;100.00
62418;BME280;48456;54.242;10.280;2023-07-31T02:32:21;100442.47;;;11.93;100.00
62418;BME280;48456;54.242;10.280;2023-07-31T02:34:48;100443.28;;;11.99;100.00
62418;BME280;48456;54.242;10.280;2023-07-31T02:37:14;100431.72;;;12.06;100.00
62418;BME280;48456;54.242;10.280;2023-07-31T02:39:41;100432.56;;;12.08;100.00
62418;BME280;48456;54.242;10.280;2023-07-31T02:42:07;100434.28;;;12.11;100.00
62418;BME280;48456;54.242;10.280;2023-07-31T02:44:33;100440.44;;;12.13;100.00
62418;BME280;48456;54.242;10.280;2023-07-31T02:47:00;100440.38;;;12.17;100.00
62418;BME280;48456;54.242;10.280;2023-07-31T02:49:26;100439.41;;;12.23;100.00
62418;BME280;48456;54.242;10.280;2023-07-31T02:51:52;100441.16;;;12.23;100.00
62418;BME280;48456;54.242;10.280;2023-07-31T02:54:21;100447.25;;;12.28;100.00
62418;BME280;48456;54.242;10.280;2023-07-31T02:56:48;100438.31;;;12.33;100.00
62418;BME280;48456;54.242;10.280;2023-07-31T02:59:15;100429.41;;;12.38;100.00
62418;BME280;48456;54.242;10.280;2023-07-31T03:01:41;100434.66;;;12.41;100.00
62418;BME280;48456;54.242;10.280;2023-07-31T03:04:08;100433.72;;;12.45;100.00
62418;BME280;48456;54.242;10.280;2023-07-31T03:06:34;100419.47;;;12.51;100.00
62418;BME280;48456;54.242;10.280;2023-07-31T03:09:00;100426.53;;;12.50;100.00
62418;BME280;48456;54.242;10.280;2023-07-31T03:11:29;100425.56;;;12.56;100.00
62418;BME280;48456;54.242;10.280;2023-07-31T03:13:56;100433.41;;;12.60;100.00
62418;BME280;48456;54.242;10.280;2023-07-31T03:16:22;100424.47;;;12.65;100.00
62418;BME280;48456;54.242;10.280;2023-07-31T03:18:49;100429.78;;;12.66;100.00
62418;BME280;48456;54.242;10.280;2023-07-31T03:21:15;100420.91;;;12.67;100.00
62418;BME280;48456;54.242;10.280;2023-07-31T03:23:41;100412.06;;;12.68;100.00
62418;BME280;48456;54.242;10.280;2023-07-31T03:26:09;100413.78;;;12.71;100.00
62418;BME280;48456;54.242;10.280;2023-07-31T03:28:36;100414.53;;;12.78;100.00
62418;BME280;48456;54.242;10.280;2023-07-31T03:31:03;100409.16;;;12.81;100.00
62418;BME280;48456;54.242;10.280;2023-07-31T03:33:29;100412.63;;;12.84;100.00
62418;BME280;48456;54.242;10.280;2023-07-31T03:35:56;100401.97;;;12.86;100.00
62418;BME280;48456;54.242;10.280;2023-07-31T03:38:22;100401.84;;;12.91;100.00
62418;BME280;48456;54.242;10.280;2023-07-31T03:40:49;100394.72;;;12.94;100.00
62418;BME280;48456;54.242;10.280;2023-07-31T03:43:15;100388.56;;;12.92;100.00
62418;BME280;48456;54.242;10.280;2023-07-31T03:45:41;100390.28;;;12.95;100.00
62418;BME280;48456;54.242;10.280;2023-07-31T03:48:08;100396.34;;;13.02;100.00
62418;BME280;48456;54.242;10.280;2023-07-31T03:50:35;100393.66;;;13.03;100.00
62418;BME280;48456;54.242;10.280;2023-07-31T03:53:01;100387.38;;;13.07;100.00
62418;BME280;48456;54.242;10.280;2023-07-31T03:55:27;100395.31;;;13.07;100.00
62418;BME280;48456;54.242;10.280;2023-07-31T03:57:54;100393.50;;;13.11;100.00
62418;BME280;48456;54.242;10.280;2023-07-31T04:00:20;100392.63;;;13.10;100.00
62418;BME280;48456;54.242;10.280;2023-07-31T04:02:48;100394.34;;;13.11;100.00
62418;BME280;48456;54.242;10.280;2023-07-31T04:05:14;100388.94;;;13.18;100.00
62418;BME280;48456;54.242;10.280;2023-07-31T04:07:41;100389.75;;;13.20;100.00
62418;BME280;48456;54.242;10.280;2023-07-31T04:10:07;100392.38;;;13.21;100.00
62418;BME280;48456;54.242;10.280;2023-07-31T04:12:38;100383.50;;;13.22;100.00
62418;BME280;48456;54.242;10.280;2023-07-31T04:15:04;100386.22;;;13.21;100.00
62418;BME280;48456;54.242;10.280;2023-07-31T04:17:31;100382.59;;;13.25;100.00
62418;BME280;48456;54.242;10.280;2023-07-31T04:19:57;100385.19;;;13.26;100.00
62418;BME280;48456;54.242;10.280;2023-07-31T04:22:24;100383.44;;;13.25;100.00
62418;BME280;48456;54.242;10.280;2023-07-31T04:24:50;100383.41;;;13.27;100.00
62418;BME280;48456;54.242;10.280;2023-07-31T04:27:16;100384.25;;;13.29;100.00
62418;BME280;48456;54.242;10.280;2023-07-31T04:29:43;100379.84;;;13.28;100.00
62418;BME280;48456;54.242;10.280;2023-07-31T04:32:12;100373.56;;;13.31;100.00
62418;BME280;48456;54.242;10.280;2023-07-31T04:34:38;100378.81;;;13.34;100.00
62418;BME280;48456;54.242;10.280;2023-07-31T04:37:04;100369.00;;;13.37;100.00
62418;BME280;48456;54.242;10.280;2023-07-31T04:39:31;100366.31;;;13.39;100.00
62418;BME280;48456;54.242;10.280;2023-07-31T04:41:57;100370.75;;;13.40;100.00
62418;BME280;48456;54.242;10.280;2023-07-31T04:44:24;100368.06;;;13.40;100.00
62418;BME280;48456;54.242;10.280;2023-07-31T04:46:50;100371.50;;;13.45;100.00
62418;BME280;48456;54.242;10.280;2023-07-31T04:49:17;100374.97;;;13.49;100.00
62418;BME280;48456;54.242;10.280;2023-07-31T04:51:43;100367.84;;;13.51;100.00
62418;BME280;48456;54.242;10.280;2023-07-31T04:54:09;100359.84;;;13.53;100.00
62418;BME280;48456;54.242;10.280;2023-07-31T04:56:36;100370.34;;;13.57;100.00
62418;BME280;48456;54.242;10.280;2023-07-31T04:59:03;100363.28;;;13.58;100.00
62418;BME280;48456;54.242;10.280;2023-07-31T05:01:30;100363.34;;;13.55;100.00
62418;BME280;48456;54.242;10.280;2023-07-31T05:03:56;100364.16;;;13.57;100.00
62418;BME280;48456;54.242;10.280;2023-07-31T05:06:22;100356.13;;;13.60;100.00
62418;BME280;48456;54.242;10.280;2023-07-31T05:08:49;100357.00;;;13.60;100.00
62418;BME280;48456;54.242;10.280;2023-07-31T05:11:15;100351.63;;;13.63;100.00
62418;BME280;48456;54.242;10.280;2023-07-31T05:13:42;100351.63;;;13.63;100.00
62418;BME280;48456;54.242;10.280;2023-07-31T05:16:08;100349.72;;;13.69;100.00
62418;BME280;48456;54.242;10.280;2023-07-31T05:18:34;100347.16;;;13.64;100.00
62418;BME280;48456;54.242;10.280;2023-07-31T05:21:01;100356.78;;;13.70;100.00
62418;BME280;48456;54.242;10.280;2023-07-31T05:23:28;100355.72;;;13.77;100.00
62418;BME280;48456;54.242;10.280;2023-07-31T05:25:54;100356.50;;;13.81;100.00
62418;BME280;48456;54.242;10.280;2023-07-31T05:28:21;100355.41;;;13.89;100.00
62418;BME280;48456;54.242;10.280;2023-07-31T05:30:47;100342.22;;;13.85;100.00
62418;BME280;48456;54.242;10.280;2023-07-31T05:33:14;100342.09;;;13.91;100.00
62418;BME280;48456;54.242;10.280;2023-07-31T05:35:40;100325.16;;;13.95;100.00
62418;BME280;48456;54.242;10.280;2023-07-31T05:38:07;100324.28;;;13.93;100.00
62418;BME280;48456;54.242;10.280;2023-07-31T05:40:33;100323.41;;;13.93;100.00
62418;BME280;48456;54.242;10.280;2023-07-31T05:43:01;100315.44;;;13.93;100.00
62418;BME280;48456;54.242;10.280;2023-07-31T05:45:28;100325.16;;;13.95;100.00
62418;BME280;48456;54.242;10.280;2023-07-31T05:47:54;100312.66;;;13.97;100.00
62418;BME280;48456;54.242;10.280;2023-07-31T05:50:20;100324.19;;;13.98;100.00
62418;BME280;48456;54.242;10.280;2023-07-31T05:52:47;100332.94;;;14.01;100.00
62418;BME280;48456;54.242;10.280;2023-07-31T05:55:13;100339.03;;;14.05;100.00
62418;BME280;48456;54.242;10.280;2023-07-31T05:57:40;100324.84;;;14.06;100.00
62418;BME280;48456;54.242;10.280;2023-07-31T06:00:06;100328.34;;;14.08;100.00
62418;BME280;48456;54.242;10.280;2023-07-31T06:02:33;100330.09;;;14.08;100.00
62418;BME280;48456;54.242;10.280;2023-07-31T06:05:03;100327.44;;;14.08;100.00
62418;BME280;48456;54.242;10.280;2023-07-31T06:07:30;100324.91;;;14.05;100.00
62418;BME280;48456;54.242;10.280;2023-07-31T06:09:57;100311.50;;;14.08;100.00
62418;BME280;48456;54.242;10.280;2023-07-31T06:12:28;100312.38;;;14.08;100.00
62418;BME280;48456;54.242;10.280;2023-07-31T06:14:54;100309.63;;;14.11;100.00
62418;BME280;48456;54.242;10.280;2023-07-31T06:17:21;100316.63;;;14.15;100.00
62418;BME280;48456;54.242;10.280;2023-07-31T06:19:47;100310.41;;;14.15;100.00
62418;BME280;48456;54.242;10.280;2023-07-31T06:22:14;100304.28;;;14.13;100.00
62418;BME280;48456;54.242;10.280;2023-07-31T06:24:40;100317.44;;;14.18;100.00
62418;BME280;48456;54.242;10.280;2023-07-31T06:27:06;100311.03;;;14.25;100.00
62418;BME280;48456;54.242;10.280;2023-07-31T06:29:34;100306.66;;;14.24;100.00
62418;BME280;48456;54.242;10.280;2023-07-31T06:32:01;100312.78;;;14.26;100.00
62418;BME280;48456;54.242;10.280;2023-07-31T06:34:29;100302.09;;;14.27;100.00
62418;BME280;48456;54.242;10.280;2023-07-31T06:36:56;100304.59;;;14.34;100.00
62418;BME280;48456;54.242;10.280;2023-07-31T06:39:22;100309.06;;;14.33;100.00
62418;BME280;48456;54.242;10.280;2023-07-31T06:41:49;100300.16;;;14.34;100.00
62418;BME280;48456;54.242;10.280;2023-07-31T06:44:15;100295.50;;;14.41;100.00
62418;BME280;48456;54.242;10.280;2023-07-31T06:46:42;100301.75;;;14.40;100.00
62418;BME280;48456;54.242;10.280;2023-07-31T06:49:08;100289.31;;;14.42;100.00
62418;BME280;48456;54.242;10.280;2023-07-31T06:51:35;100296.41;;;14.41;100.00
62418;BME280;48456;54.242;10.280;2023-07-31T06:54:02;100306.09;;;14.44;100.00
62418;BME280;48456;54.242;10.280;2023-07-31T06:56:28;100300.00;;;14.40;100.00
62418;BME280;48456;54.242;10.280;2023-07-31T06:58:55;100307.09;;;14.40;100.00
62418;BME280;48456;54.242;10.280;2023-07-31T07:01:22;100294.47;;;14.47;100.00
62418;BME280;48456;54.242;10.280;2023-07-31T07:03:48;100293.50;;;14.49;100.00
62418;BME280;48456;54.242;10.280;2023-07-31T07:06:17;100296.06;;;14.54;100.00
62418;BME280;48456;54.242;10.280;2023-07-31T07:08:44;100291.53;;;14.56;100.00
62418;BME280;48456;54.242;10.280;2023-07-31T07:11:10;100295.78;;;14.63;100.00
62418;BME280;48456;54.242;10.280;2023-07-31T07:13:36;100294.81;;;14.66;100.00
62418;BME280;48456;54.242;10.280;2023-07-31T07:16:05;100292.09;;;14.67;100.00
62418;BME280;48456;54.242;10.280;2023-07-31T07:18:31;100296.50;;;14.68;100.00
62418;BME280;48456;54.242;10.280;2023-07-31T07:20:58;100299.09;;;14.72;100.00
62418;BME280;48456;54.242;10.280;2023-07-31T07:23:24;100305.91;;;14.82;100.00
62418;BME280;48456;54.242;10.280;2023-07-31T07:25:51;100301.41;;;14.84;100.00
62418;BME280;48456;54.242;10.280;2023-07-31T07:28:17;100301.47;;;14.83;100.00
62418;BME280;48456;54.242;10.280;2023-07-31T07:30:44;100299.47;;;14.89;100.00
62418;BME280;48456;54.242;10.280;2023-07-31T07:33:10;100300.84;;;15.03;100.00
62418;BME280;48456;54.242;10.280;2023-07-31T07:35:38;100300.84;;;15.03;100.00
62418;BME280;48456;54.242;10.280;2023-07-31T07:38:04;100291.06;;;15.03;100.00
62418;BME280;48456;54.242;10.280;2023-07-31T07:40:31;100288.53;;;14.99;100.00
62418;BME280;48456;54.242;10.280;2023-07-31T07:42:57;100293.91;;;14.97;100.00
62418;BME280;48456;54.242;10.280;2023-07-31T07:45:26;100287.72;;;14.97;100.00
62418;BME280;48456;54.242;10.280;2023-07-31T07:47:53;100284.84;;;15.03;100.00
62418;BME280;48456;54.242;10.280;2023-07-31T07:50:19;100285.69;;;15.05;100.00
62418;BME280;48456;54.242;10.280;2023-07-31T07:52:46;100287.34;;;15.09;100.00
62418;BME280;48456;54.242;10.280;2023-07-31T07:55:12;100277.31;;;15.17;100.00
62418;BME280;48456;54.242;10.280;2023-07-31T07:57:39;100285.00;;;15.27;100.00
62418;BME280;48456;54.242;10.280;2023-07-31T08:00:05;100277.03;;;15.27;100.00
62418;BME280;48456;54.242;10.280;2023-07-31T08:02:32;100278.84;;;15.25;100.00
62418;BME280;48456;54.242;10.280;2023-07-31T08:04:58;100266.41;;;15.25;100.00
62418;BME280;48456;54.242;10.280;2023-07-31T08:07:25;100264.91;;;15.16;100.00
62418;BME280;48456;54.242;10.280;2023-07-31T08:09:52;100265.53;;;15.25;100.00
62418;BME280;48456;54.242;10.280;2023-07-31T08:12:18;100276.56;;;15.41;100.00
62418;BME280;48456;54.242;10.280;2023-07-31T08:14:45;100275.50;;;15.46;100.00
62418;BME280;48456;54.242;10.280;2023-07-31T08:17:11;100275.03;;;15.33;100.00
62418;BME280;48456;54.242;10.280;2023-07-31T08:19:38;100272.44;;;15.30;100.00
62418;BME280;48456;54.242;10.280;2023-07-31T08:22:04;100268.19;;;15.25;100.00
62418;BME280;48456;54.242;10.280;2023-07-31T08:24:31;100258.66;;;15.17;100.00
62418;BME280;48456;54.242;10.280;2023-07-31T08:26:58;100257.75;;;15.18;100.00
62418;BME280;48456;54.242;10.280;2023-07-31T08:29:24;100253.34;;;15.17;100.00
62418;BME280;48456;54.242;10.280;2023-07-31T08:31:51;100269.94;;;15.26;100.00
62418;BME280;48456;54.242;10.280;2023-07-31T08:34:17;100269.69;;;15.33;100.00
62418;BME280;48456;54.242;10.280;2023-07-31T08:36:44;100267.34;;;15.24;100.00
62418;BME280;48456;54.242;10.280;2023-07-31T08:39:10;100265.72;;;15.18;100.00
62418;BME280;48456;54.242;10.280;2023-07-31T08:41:39;100257.91;;;15.12;100.00
62418;BME280;48456;54.242;10.280;2023-07-31T08:44:06;100266.84;;;15.11;100.00
62418;BME280;48456;54.242;10.280;2023-07-31T08:46:33;100269.16;;;15.22;100.00
62418;BME280;48456;54.242;10.280;2023-07-31T08:49:00;100266.44;;;15.24;100.00
62418;BME280;48456;54.242;10.280;2023-07-31T08:51:29;100270.09;;;15.21;100.00
62418;BME280;48456;54.242;10.280;2023-07-31T08:53:56;100276.84;;;15.31;100.00
62418;BME280;48456;54.242;10.280;2023-07-31T08:56:23;100280.44;;;15.30;100.00
62418;BME280;48456;54.242;10.280;2023-07-31T08:58:51;100271.28;;;15.39;100.00
62418;BME280;48456;54.242;10.280;2023-07-31T09:01:18;100269.59;;;15.37;100.00
62418;BME280;48456;54.242;10.280;2023-07-31T09:03:45;100270.72;;;15.29;100.00
62418;BME280;48456;54.242;10.280;2023-07-31T09:06:13;100274.34;;;15.27;100.00
62418;BME280;48456;54.242;10.280;2023-07-31T09:08:40;100269.06;;;15.25;100.00
62418;BME280;48456;54.242;10.280;2023-07-31T09:11:07;100267.38;;;15.23;100.00
62418;BME280;48456;54.242;10.280;2023-07-31T09:13:34;100269.84;;;15.29;100.00
62418;BME280;48456;54.242;10.280;2023-07-31T09:16:00;100264.41;;;15.32;100.00
62418;BME280;48456;54.242;10.280;2023-07-31T09:18:27;100268.63;;;15.39;100.00
62418;BME280;48456;54.242;10.280;2023-07-31T09:23:42;100269.94;;;15.26;100.00
62418;BME280;48456;54.242;10.280;2023-07-31T09:26:09;100265.78;;;15.17;100.00
62418;BME280;48456;54.242;10.280;2023-07-31T09:28:36;100269.13;;;15.24;100.00
62418;BME280;48456;54.242;10.280;2023-07-31T09:31:03;100269.13;;;15.24;100.00
62418;BME280;48456;54.242;10.280;2023-07-31T09:33:29;100273.72;;;15.18;100.00
62418;BME280;48456;54.242;10.280;2023-07-31T09:35:58;100272.56;;;15.27;100.00
62418;BME280;48456;54.242;10.280;2023-07-31T09:38:24;100268.56;;;15.12;100.00
62418;BME280;48456;54.242;10.280;2023-07-31T09:40:51;100253.66;;;15.08;100.00
62418;BME280;48456;54.242;10.280;2023-07-31T09:43:18;100250.09;;;15.07;100.00
62418;BME280;48456;54.242;10.280;2023-07-31T09:45:45;100240.31;;;15.08;100.00
62418;BME280;48456;54.242;10.280;2023-07-31T09:48:13;100245.66;;;15.08;100.00
62418;BME280;48456;54.242;10.280;2023-07-31T09:50:41;100237.31;;;15.19;100.00
62418;BME280;48456;54.242;10.280;2023-07-31T09:53:07;100241.63;;;15.23;100.00
62418;BME280;48456;54.242;10.280;2023-07-31T09:55:35;100249.34;;;15.31;100.00
62418;BME280;48456;54.242;10.280;2023-07-31T09:58:03;100249.97;;;15.39;100.00
62418;BME280;48456;54.242;10.280;2023-07-31T10:00:30;100241.09;;;15.39;100.00
62418;BME280;48456;54.242;10.280;2023-07-31T10:03:09;100251.66;;;15.42;100.00
62418;BME280;48456;54.242;10.280;2023-07-31T10:08:02;100239.53;;;15.31;100.00
62418;BME280;48456;54.242;10.280;2023-07-31T10:10:29;100246.50;;;15.36;100.00
62418;BME280;48456;54.242;10.280;2023-07-31T10:12:56;100236.78;;;15.35;100.00
62418;BME280;48456;54.242;10.280;2023-07-31T10:15:22;100235.56;;;15.45;100.00
62418;BME280;48456;54.242;10.280;2023-07-31T10:17:50;100227.34;;;15.51;100.00
62418;BME280;48456;54.242;10.280;2023-07-31T10:20:17;100230.53;;;15.63;100.00
62418;BME280;48456;54.242;10.280;2023-07-31T10:22:44;100229.50;;;15.67;100.00
62418;BME280;48456;54.242;10.280;2023-07-31T10:25:12;100224.50;;;15.57;100.00
62418;BME280;48456;54.242;10.280;2023-07-31T10:27:39;100219.03;;;15.61;100.00
62418;BME280;48456;54.242;10.280;2023-07-31T10:30:06;100217.44;;;15.55;100.00
62418;BME280;48456;54.242;10.280;2023-07-31T10:32:34;100206.22;;;15.46;100.00
62418;BME280;48456;54.242;10.280;2023-07-31T10:35:05;100204.94;;;15.57;100.00
62418;BME280;48456;54.242;10.280;2023-07-31T10:37:37;100206.78;;;15.55;100.00
62418;BME280;48456;54.242;10.280;2023-07-31T10:40:04;100223.19;;;15.69;100.00
62418;BME280;48456;54.242;10.280;2023-07-31T10:42:35;100231.19;;;15.69;100.00
62418;BME280;48456;54.242;10.280;2023-07-31T10:45:03;100230.72;;;15.56;100.00
62418;BME280;48456;54.242;10.280;2023-07-31T10:47:30;100241.19;;;15.63;100.00
62418;BME280;48456;54.242;10.280;2023-07-31T10:52:43;100245.88;;;15.56;100.00
62418;BME280;48456;54.242;10.280;2023-07-31T10:55:32;100231.47;;;15.62;100.00
62418;BME280;48456;54.242;10.280;2023-07-31T10:57:57;100219.53;;;15.72;100.00
62418;BME280;48456;54.242;10.280;2023-07-31T11:00:28;100221.63;;;15.89;100.00
62418;BME280;48456;54.242;10.280;2023-07-31T11:02:58;100226.66;;;15.98;100.00
62418;BME280;48456;54.242;10.280;2023-07-31T11:08:23;100239.59;;;16.33;100.00
62418;BME280;48456;54.242;10.280;2023-07-31T11:10:51;100241.00;;;16.44;100.00
62418;BME280;48456;54.242;10.280;2023-07-31T11:13:17;100229.38;;;16.45;100.00
62418;BME280;48456;54.242;10.280;2023-07-31T11:15:44;100226.56;;;16.49;100.00
62418;BME280;48456;54.242;10.280;2023-07-31T11:18:11;100224.00;;;16.46;100.00
62418;BME280;48456;54.242;10.280;2023-07-31T11:20:38;100215.34;;;16.40;100.00
62418;BME280;48456;54.242;10.280;2023-07-31T11:23:09;100210.53;;;16.26;100.00
62418;BME280;48456;54.242;10.280;2023-07-31T11:25:37;100212.56;;;16.19;100.00
62418;BME280;48456;54.242;10.280;2023-07-31T11:28:06;100209.53;;;16.28;100.00
62418;BME280;48456;54.242;10.280;2023-07-31T11:30:33;100209.31;;;16.10;100.00
62418;BME280;48456;54.242;10.280;2023-07-31T11:33:01;100209.19;;;15.88;100.00
62418;BME280;48456;54.242;10.280;2023-07-31T11:35:32;100208.06;;;15.95;100.00
62418;BME280;48456;54.242;10.280;2023-07-31T11:37:59;100195.84;;;15.88;100.00
62418;BME280;48456;54.242;10.280;2023-07-31T11:40:25;100195.75;;;15.91;100.00
62418;BME280;48456;54.242;10.280;2023-07-31T11:42:58;100204.09;;;15.82;100.00
62418;BME280;48456;54.242;10.280;2023-07-31T11:45:26;100191.88;;;15.75;100.00
62418;BME280;48456;54.242;10.280;2023-07-31T11:47:55;100181.97;;;15.78;100.00
62418;BME280;48456;54.242;10.280;2023-07-31T11:50:23;100178.28;;;15.82;100.00
62418;BME280;48456;54.242;10.280;2023-07-31T11:52:57;100171.00;;;15.88;100.00
62418;BME280;48456;54.242;10.280;2023-07-31T11:55:24;100170.06;;;15.89;100.00
62418;BME280;48456;54.242;10.280;2023-07-31T11:57:52;100181.81;;;15.83;100.00
62418;BME280;48456;54.242;10.280;2023-07-31T12:00:19;100194.56;;;15.75;100.00
62418;BME280;48456;54.242;10.280;2023-07-31T12:02:46;100182.78;;;15.55;100.00
62418;BME280;48456;54.242;10.280;2023-07-31T12:05:13;100189.66;;;15.37;100.00
62418;BME280;48456;54.242;10.280;2023-07-31T12:07:43;100187.88;;;15.36;100.00
62418;BME280;48456;54.242;10.280;2023-07-31T12:10:09;100196.06;;;15.31;100.00
62418;BME280;48456;54.242;10.280;2023-07-31T12:12:37;100183.06;;;15.22;100.00
62418;BME280;48456;54.242;10.280;2023-07-31T12:15:12;100183.84;;;15.24;100.00
62418;BME280;48456;54.242;10.280;2023-07-31T12:17:39;100178.63;;;15.20;100.00
62418;BME280;48456;54.242;10.280;2023-07-31T12:20:05;100176.13;;;15.16;100.00
62418;BME280;48456;54.242;10.280;2023-07-31T12:22:33;100170.75;;;15.17;100.00
62418;BME280;48456;54.242;10.280;2023-07-31T12:24:59;100169.88;;;15.17;100.00
62418;BME280;48456;54.242;10.280;2023-07-31T12:27:32;100158.25;;;15.19;100.00
62418;BME280;48456;54.242;10.280;2023-07-31T12:29:58;100166.41;;;15.15;100.00
62418;BME280;48456;54.242;10.280;2023-07-31T12:32:25;100177.50;;;15.01;100.00
62418;BME280;48456;54.242;10.280;2023-07-31T12:34:51;100172.41;;;14.93;100.00
62418;BME280;48456;54.242;10.280;2023-07-31T12:37:18;100165.63;;;14.84;100.00
62418;BME280;48456;54.242;10.280;2023-07-31T12:39:44;100160.22;;;14.87;100.00
62418;BME280;48456;54.242;10.280;2023-07-31T12:42:11;100153.78;;;14.93;100.00
62418;BME280;48456;54.242;10.280;2023-07-31T12:44:38;100150.03;;;14.99;100.00